createdAt,value
2018-05-23T00:01:13.294Z,16.90
2018-05-23T00:03:40.722Z,16.80
2018-05-23T00:06:08.925Z,16.90
2018-05-23T00:08:36.368Z,16.80
2018-05-23T00:11:03.804Z,16.80
2018-05-23T00:13:32.037Z,16.70
2018-05-23T00:15:59.468Z,16.60
2018-05-23T00:18:26.910Z,16.70
2018-05-23T00:20:54.348Z,16.60
2018-05-23T00:23:22.552Z,16.60
2018-05-23T00:25:49.996Z,16.60
2018-05-23T00:28:17.449Z,16.70
2018-05-23T00:30:45.749Z,16.60
2018-05-23T00:33:13.216Z,16.60
2018-05-23T00:35:40.654Z,16.60
2018-05-23T00:38:08.085Z,16.50
2018-05-23T00:40:35.524Z,16.50
2018-05-23T00:43:03.724Z,16.30
2018-05-23T00:45:31.205Z,16.30
2018-05-23T00:47:58.669Z,16.40
2018-05-23T00:50:26.100Z,16.30
2018-05-23T00:52:53.585Z,16.30
2018-05-23T00:55:32.984Z,16.30
2018-05-23T00:58:00.473Z,16.30
2018-05-23T01:00:27.908Z,16.30
2018-05-23T01:02:55.388Z,16.20
2018-05-23T01:05:22.841Z,16.20
2018-05-23T01:07:50.268Z,16.10
2018-05-23T01:10:17.706Z,16.10
2018-05-23T01:12:45.910Z,16.00
2018-05-23T01:15:13.393Z,15.90
2018-05-23T01:17:40.847Z,16.00
2018-05-23T01:20:08.289Z,16.00
2018-05-23T01:22:35.749Z,15.90
2018-05-23T01:25:03.176Z,15.90
2018-05-23T01:27:30.630Z,15.90
2018-05-23T01:29:58.044Z,15.80
2018-05-23T01:32:25.584Z,15.80
2018-05-23T01:34:53.028Z,15.80
2018-05-23T01:37:20.492Z,15.80
2018-05-23T01:39:47.927Z,15.80
2018-05-23T01:42:15.412Z,15.80
2018-05-23T01:44:42.846Z,15.70
2018-05-23T01:47:10.321Z,15.70
2018-05-23T01:49:37.860Z,15.70
2018-05-23T01:52:05.346Z,15.70
2018-05-23T01:54:32.796Z,15.60
2018-05-23T01:57:00.235Z,15.60
2018-05-23T01:59:27.690Z,15.60
2018-05-23T02:01:55.124Z,15.50
2018-05-23T02:04:22.616Z,15.50
2018-05-23T02:06:50.092Z,15.50
2018-05-23T02:09:17.524Z,15.50
2018-05-23T02:11:44.994Z,15.50
2018-05-23T02:14:12.489Z,15.40
2018-05-23T02:16:39.899Z,15.40
2018-05-23T02:19:07.328Z,15.40
2018-05-23T02:21:34.836Z,15.30
2018-05-23T02:24:02.273Z,15.30
2018-05-23T02:26:29.732Z,15.30
2018-05-23T02:28:57.173Z,15.30
2018-05-23T02:31:24.614Z,15.20
2018-05-23T02:33:52.045Z,15.20
2018-05-23T02:36:19.672Z,15.20
2018-05-23T02:38:47.126Z,15.10
2018-05-23T02:41:14.563Z,15.10
2018-05-23T02:43:41.990Z,15.00
2018-05-23T02:46:15.173Z,15.00
2018-05-23T02:48:42.620Z,15.00
2018-05-23T02:51:10.824Z,14.90
2018-05-23T02:53:38.302Z,14.80
2018-05-23T02:56:05.737Z,14.90
2018-05-23T02:58:33.190Z,14.80
2018-05-23T03:01:00.685Z,14.80
2018-05-23T03:03:28.882Z,14.70
2018-05-23T03:05:57.081Z,14.70
2018-05-23T03:08:24.520Z,14.70
2018-05-23T03:10:52.713Z,14.70
2018-05-23T03:13:20.205Z,14.70
2018-05-23T03:15:47.743Z,14.70
2018-05-23T03:18:15.165Z,14.70
2018-05-23T03:20:43.363Z,14.70
2018-05-23T03:23:10.795Z,14.60
2018-05-23T03:25:38.993Z,14.70
2018-05-23T03:28:06.436Z,14.60
2018-05-23T03:30:33.873Z,14.60
2018-05-23T03:33:02.094Z,14.50
2018-05-23T03:35:29.526Z,14.50
2018-05-23T03:37:56.959Z,14.60
2018-05-23T03:40:25.149Z,14.50
2018-05-23T03:42:52.592Z,14.40
2018-05-23T03:45:20.792Z,14.50
2018-05-23T03:47:48.270Z,14.50
2018-05-23T03:50:15.696Z,14.50
2018-05-23T03:52:43.132Z,14.50
2018-05-23T03:55:11.339Z,14.50
2018-05-23T03:57:38.773Z,14.40
2018-05-23T04:00:18.180Z,14.50
2018-05-23T04:02:57.448Z,14.50
2018-05-23T04:05:38.514Z,14.70
2018-05-23T04:08:05.964Z,14.60
2018-05-23T04:10:34.156Z,14.80
2018-05-23T04:13:01.605Z,14.70
2018-05-23T04:15:29.101Z,14.90
2018-05-23T04:17:56.466Z,15.00
2018-05-23T04:20:23.929Z,15.10
2018-05-23T04:22:51.377Z,15.00
2018-05-23T04:25:18.833Z,15.10
2018-05-23T04:27:46.257Z,15.10
2018-05-23T04:30:13.744Z,15.20
2018-05-23T04:32:41.191Z,15.20
2018-05-23T04:35:08.620Z,15.20
2018-05-23T04:37:36.112Z,15.20
2018-05-23T04:40:03.549Z,15.30
2018-05-23T04:42:31.103Z,15.30
2018-05-23T04:44:58.525Z,15.40
2018-05-23T04:47:26.721Z,15.50
2018-05-23T04:49:54.185Z,15.40
2018-05-23T04:52:21.641Z,15.50
2018-05-23T04:54:49.107Z,15.50
2018-05-23T04:57:16.549Z,15.60
2018-05-23T04:59:44.021Z,15.70
2018-05-23T05:02:11.445Z,15.80
2018-05-23T05:04:38.876Z,15.80
2018-05-23T05:07:06.316Z,15.80
2018-05-23T05:09:33.842Z,15.80
2018-05-23T05:12:01.272Z,15.80
2018-05-23T05:14:28.734Z,15.80
2018-05-23T05:16:56.952Z,15.90
2018-05-23T05:19:24.422Z,15.90
2018-05-23T05:21:51.856Z,15.90
2018-05-23T05:24:19.309Z,16.00
2018-05-23T05:26:46.735Z,16.10
2018-05-23T05:29:14.228Z,16.10
2018-05-23T05:31:41.694Z,16.10
2018-05-23T05:34:10.096Z,16.20
2018-05-23T05:36:38.290Z,16.20
2018-05-23T05:39:05.740Z,16.20
2018-05-23T05:41:34.049Z,16.30
2018-05-23T05:44:01.473Z,16.30
2018-05-23T05:46:29.699Z,16.40
2018-05-23T05:48:57.235Z,16.40
2018-05-23T05:51:24.821Z,16.40
2018-05-23T05:53:52.267Z,16.50
2018-05-23T05:56:19.731Z,16.70
2018-05-23T05:58:47.172Z,16.80
2018-05-23T06:01:14.649Z,16.90
2018-05-23T06:03:42.121Z,17.10
2018-05-23T06:06:09.591Z,17.10
2018-05-23T06:08:37.092Z,17.10
2018-05-23T06:11:04.531Z,17.30
2018-05-23T06:13:31.971Z,17.30
2018-05-23T06:16:00.217Z,17.40
2018-05-23T06:18:27.739Z,17.40
2018-05-23T06:20:55.176Z,17.50
2018-05-23T06:23:22.641Z,17.60
2018-05-23T06:25:50.075Z,17.70
2018-05-23T06:28:17.537Z,17.90
2018-05-23T06:30:45.015Z,18.00
2018-05-23T06:33:12.471Z,18.00
2018-05-23T06:35:39.953Z,18.20
2018-05-23T06:38:07.398Z,18.30
2018-05-23T06:40:34.845Z,18.40
2018-05-23T06:43:02.308Z,18.60
2018-05-23T06:45:29.776Z,18.70
2018-05-23T06:47:57.222Z,18.80
2018-05-23T06:50:24.769Z,18.80
2018-05-23T06:52:52.205Z,18.80
2018-05-23T06:55:19.728Z,18.80
2018-05-23T06:57:47.156Z,18.80
2018-05-23T07:00:14.662Z,18.80
2018-05-23T07:02:42.058Z,18.90
2018-05-23T07:05:09.528Z,19.00
2018-05-23T07:07:36.962Z,19.10
2018-05-23T07:10:04.448Z,19.20
2018-05-23T07:12:31.876Z,19.40
2018-05-23T07:14:59.332Z,19.50
2018-05-23T07:17:26.781Z,19.50
2018-05-23T07:19:54.229Z,19.50
2018-05-23T07:22:21.698Z,19.70
2018-05-23T07:24:49.258Z,19.80
2018-05-23T07:27:16.749Z,20.00
2018-05-23T07:29:44.202Z,20.00
2018-05-23T07:32:11.630Z,20.10
2018-05-23T07:34:39.105Z,20.20
2018-05-23T07:37:06.551Z,20.30
2018-05-23T07:39:34.034Z,20.40
2018-05-23T07:42:01.460Z,20.50
2018-05-23T07:44:29.012Z,20.60
2018-05-23T07:46:56.457Z,20.70
2018-05-23T07:49:24.026Z,20.80
2018-05-23T07:51:51.860Z,20.80
2018-05-23T07:54:20.173Z,20.90
2018-05-23T07:56:47.644Z,20.90
2018-05-23T07:59:15.182Z,20.90
2018-05-23T08:01:42.617Z,20.90
2018-05-23T08:04:10.199Z,20.90
2018-05-23T08:06:37.623Z,20.80
2018-05-23T08:09:05.818Z,21.00
2018-05-23T08:11:33.288Z,21.00
2018-05-23T08:14:00.732Z,21.10
2018-05-23T08:16:28.171Z,21.20
2018-05-23T08:18:55.688Z,21.30
2018-05-23T08:21:23.130Z,21.30
2018-05-23T08:23:50.585Z,21.30
2018-05-23T08:26:18.103Z,21.30
2018-05-23T08:28:45.644Z,21.30
2018-05-23T08:31:13.085Z,21.20
2018-05-23T08:33:40.556Z,21.30
2018-05-23T08:36:09.636Z,21.40
2018-05-23T08:38:37.148Z,21.40
2018-05-23T08:41:04.571Z,21.40
2018-05-23T08:43:32.817Z,21.40
2018-05-23T08:46:01.075Z,21.50
2018-05-23T08:48:28.477Z,21.40
2018-05-23T08:50:56.677Z,21.60
2018-05-23T08:53:24.239Z,21.60
2018-05-23T08:55:51.669Z,21.70
2018-05-23T08:58:19.152Z,21.70
2018-05-23T09:00:46.653Z,21.70
2018-05-23T09:03:14.270Z,21.80
2018-05-23T09:05:41.776Z,21.90
2018-05-23T09:08:09.217Z,21.90
2018-05-23T09:10:36.676Z,21.70
2018-05-23T09:13:05.626Z,21.80
2018-05-23T09:15:33.062Z,21.80
2018-05-23T09:18:00.547Z,21.80
2018-05-23T09:20:28.006Z,21.80
2018-05-23T09:22:55.495Z,21.90
2018-05-23T09:25:22.961Z,21.90
2018-05-23T09:27:50.376Z,22.00
2018-05-23T09:30:17.843Z,21.90
2018-05-23T09:32:45.290Z,22.00
2018-05-23T09:35:12.726Z,22.00
2018-05-23T09:37:40.160Z,22.10
2018-05-23T09:40:07.688Z,22.30
2018-05-23T09:42:35.134Z,22.40
2018-05-23T09:45:02.681Z,22.50
2018-05-23T09:47:30.135Z,22.60
2018-05-23T09:49:57.605Z,22.80
2018-05-23T09:52:25.051Z,22.80
2018-05-23T09:54:52.494Z,22.80
2018-05-23T09:57:19.966Z,22.80
2018-05-23T09:59:48.289Z,22.70
2018-05-23T10:02:16.505Z,22.70
2018-05-23T10:04:44.020Z,22.70
2018-05-23T10:07:12.219Z,22.80
2018-05-23T10:09:39.794Z,22.80
2018-05-23T10:12:07.304Z,22.70
2018-05-23T10:14:34.758Z,22.60
2018-05-23T10:17:02.283Z,22.70
2018-05-23T10:19:29.752Z,22.80
2018-05-23T10:21:57.284Z,22.90
2018-05-23T10:24:24.759Z,22.90
2018-05-23T10:26:52.307Z,22.90
2018-05-23T10:29:19.765Z,22.90
2018-05-23T10:31:47.244Z,23.00
2018-05-23T10:34:14.708Z,23.20
2018-05-23T10:36:42.157Z,23.40
2018-05-23T10:39:09.691Z,23.40
2018-05-23T10:41:37.092Z,23.20
2018-05-23T10:44:05.445Z,23.30
2018-05-23T10:46:32.875Z,23.20
2018-05-23T10:49:00.328Z,23.10
2018-05-23T10:51:27.766Z,23.10
2018-05-23T10:53:55.200Z,23.20
2018-05-23T10:56:23.420Z,23.30
2018-05-23T10:58:50.893Z,23.30
2018-05-23T11:01:18.438Z,23.30
2018-05-23T11:03:45.856Z,23.40
2018-05-23T11:06:14.163Z,23.50
2018-05-23T11:08:41.591Z,23.40
2018-05-23T11:11:09.805Z,23.60
2018-05-23T11:13:37.260Z,23.50
2018-05-23T11:16:04.724Z,23.70
2018-05-23T11:18:32.189Z,23.70
2018-05-23T11:20:59.717Z,23.70
2018-05-23T11:23:27.198Z,23.70
2018-05-23T11:25:54.649Z,23.70
2018-05-23T11:28:22.191Z,23.90
2018-05-23T11:30:49.886Z,23.90
2018-05-23T11:33:17.397Z,23.90
2018-05-23T11:35:44.831Z,24.00
2018-05-23T11:38:12.268Z,24.00
2018-05-23T11:40:39.693Z,24.20
2018-05-23T11:43:07.341Z,24.10
2018-05-23T11:45:34.752Z,24.20
2018-05-23T11:48:02.980Z,24.20
2018-05-23T11:50:30.466Z,24.20
2018-05-23T11:52:58.084Z,24.30
2018-05-23T11:55:25.578Z,24.40
2018-05-23T11:57:53.726Z,24.40
2018-05-23T12:00:21.277Z,24.30
2018-05-23T12:02:48.732Z,24.40
2018-05-23T12:07:50.809Z,24.70
2018-05-23T12:10:18.563Z,24.70
2018-05-23T12:12:45.968Z,24.70
2018-05-23T12:15:13.396Z,24.70
2018-05-23T12:17:40.949Z,24.70
2018-05-23T12:20:08.360Z,24.80
2018-05-23T12:22:36.626Z,24.70
2018-05-23T12:25:04.081Z,24.70
2018-05-23T12:27:31.531Z,24.70
2018-05-23T12:29:59.054Z,24.90
2018-05-23T12:32:26.544Z,24.90
2018-05-23T12:34:53.969Z,24.80
2018-05-23T12:37:21.421Z,24.70
2018-05-23T12:39:48.880Z,24.50
2018-05-23T12:42:16.366Z,24.50
2018-05-23T12:44:43.836Z,24.60
2018-05-23T12:47:11.281Z,24.60
2018-05-23T12:49:38.716Z,24.60
2018-05-23T12:52:06.196Z,24.60
2018-05-23T12:54:33.632Z,24.70
2018-05-23T12:57:01.182Z,24.70
2018-05-23T12:59:28.667Z,24.60
2018-05-23T13:01:56.092Z,24.70
2018-05-23T13:04:23.569Z,24.70
2018-05-23T13:06:51.031Z,24.70
2018-05-23T13:09:18.461Z,24.60
2018-05-23T13:11:45.904Z,24.80
2018-05-23T13:14:13.337Z,24.80
2018-05-23T13:16:41.545Z,25.00
2018-05-23T13:19:09.102Z,24.90
2018-05-23T13:21:36.528Z,25.00
2018-05-23T13:24:04.732Z,25.10
2018-05-23T13:26:32.261Z,25.00
2018-05-23T13:29:00.464Z,25.30
2018-05-23T13:31:27.904Z,25.20
2018-05-23T13:33:55.479Z,25.30
2018-05-23T13:36:22.957Z,25.10
2018-05-23T13:38:50.574Z,24.80
2018-05-23T13:41:18.256Z,24.80
2018-05-23T13:43:45.706Z,24.90
2018-05-23T13:46:13.133Z,25.10
2018-05-23T13:48:41.374Z,25.10
2018-05-23T13:51:08.816Z,25.10
2018-05-23T13:53:36.253Z,25.10
2018-05-23T13:56:03.723Z,25.20
2018-05-23T13:58:31.149Z,25.10
2018-05-23T14:00:58.611Z,25.10
2018-05-23T14:03:26.050Z,25.10
2018-05-23T14:05:54.257Z,24.80
2018-05-23T14:08:21.710Z,24.70
2018-05-23T14:10:49.142Z,24.80
2018-05-23T14:13:17.377Z,24.80
2018-05-23T14:15:44.816Z,24.80
2018-05-23T14:18:12.296Z,24.80
2018-05-23T14:20:39.724Z,24.80
2018-05-23T14:23:07.204Z,24.90
2018-05-23T14:25:34.675Z,25.10
2018-05-23T14:28:02.099Z,25.10
2018-05-23T14:30:29.543Z,25.20
2018-05-23T14:32:56.989Z,25.30
2018-05-23T14:35:24.448Z,25.30
2018-05-23T14:37:51.878Z,25.40
2018-05-23T14:40:19.349Z,25.10
2018-05-23T14:42:46.818Z,24.90
2018-05-23T14:45:14.252Z,25.00
2018-05-23T14:47:41.729Z,25.20
2018-05-23T14:50:09.210Z,25.20
2018-05-23T14:52:36.608Z,25.40
2018-05-23T14:55:05.432Z,25.50
2018-05-23T14:57:32.891Z,25.50
2018-05-23T15:00:00.325Z,25.40
2018-05-23T15:02:27.842Z,25.50
2018-05-23T15:04:55.987Z,25.50
2018-05-23T15:07:23.438Z,25.50
2018-05-23T15:09:50.902Z,25.80
2018-05-23T15:12:18.552Z,26.20
2018-05-23T15:14:45.970Z,26.50
2018-05-23T15:17:14.172Z,27.90
2018-05-23T15:19:41.729Z,27.90
2018-05-23T15:22:09.090Z,28.90
2018-05-23T15:24:36.679Z,30.20
2018-05-23T15:27:04.140Z,30.70
2018-05-23T15:29:31.617Z,30.90
2018-05-23T15:31:59.834Z,31.20
2018-05-23T15:34:27.289Z,31.20
2018-05-23T15:36:54.745Z,32.10
2018-05-23T15:39:22.202Z,32.30
2018-05-23T15:41:49.674Z,32.20
2018-05-23T15:44:17.878Z,32.10
2018-05-23T15:46:45.247Z,32.10
2018-05-23T15:49:13.449Z,32.10
2018-05-23T15:51:40.884Z,32.10
2018-05-23T15:54:08.349Z,32.00
2018-05-23T15:56:35.809Z,31.40
2018-05-23T15:59:04.055Z,31.10
2018-05-23T16:01:31.949Z,31.00
2018-05-23T16:03:59.443Z,31.40
2018-05-23T16:06:26.877Z,31.50
2018-05-23T16:08:54.308Z,31.50
2018-05-23T16:11:22.529Z,31.40
2018-05-23T16:13:49.973Z,31.40
2018-05-23T16:16:17.422Z,31.10
2018-05-23T16:18:44.848Z,31.30
2018-05-23T16:21:13.056Z,30.90
2018-05-23T16:23:41.181Z,30.90
2018-05-23T16:26:09.506Z,31.40
2018-05-23T16:28:36.921Z,31.40
2018-05-23T16:31:05.237Z,31.60
2018-05-23T16:33:32.677Z,31.50
2018-05-23T16:36:00.150Z,31.80
2018-05-23T16:38:27.709Z,31.50
2018-05-23T16:40:55.167Z,31.10
2018-05-23T16:43:22.784Z,30.60
2018-05-23T16:45:51.057Z,30.90
2018-05-23T16:48:18.532Z,30.90
2018-05-23T16:50:46.781Z,30.50
2018-05-23T16:53:14.272Z,30.50
2018-05-23T16:55:42.573Z,30.80
2018-05-23T16:58:10.009Z,30.80
2018-05-23T17:00:37.471Z,31.10
2018-05-23T17:03:04.876Z,30.70
2018-05-23T17:05:32.409Z,30.40
2018-05-23T17:07:59.842Z,30.10
2018-05-23T17:10:27.286Z,30.20
2018-05-23T17:12:54.735Z,29.90
2018-05-23T17:15:22.216Z,29.90
2018-05-23T17:17:49.701Z,30.30
2018-05-23T17:20:17.254Z,29.90
2018-05-23T17:22:44.732Z,29.50
2018-05-23T17:25:12.188Z,29.10
2018-05-23T17:27:39.639Z,28.80
2018-05-23T17:30:07.056Z,29.00
2018-05-23T17:32:34.521Z,28.90
2018-05-23T17:35:01.972Z,28.60
2018-05-23T17:37:29.400Z,28.40
2018-05-23T17:39:56.872Z,28.50
2018-05-23T17:42:24.349Z,28.50
2018-05-23T17:44:51.793Z,28.50
2018-05-23T17:47:19.285Z,27.80
2018-05-23T17:49:47.120Z,27.40
2018-05-23T17:52:14.548Z,27.30
2018-05-23T17:54:41.976Z,26.70
2018-05-23T17:57:09.445Z,25.90
2018-05-23T17:59:36.945Z,25.40
2018-05-23T18:02:04.402Z,25.20
2018-05-23T18:04:31.825Z,24.80
2018-05-23T18:07:00.036Z,24.30
2018-05-23T18:09:27.520Z,24.20
2018-05-23T18:11:54.992Z,24.20
2018-05-23T18:14:22.453Z,23.90
2018-05-23T18:16:50.753Z,23.60
2018-05-23T18:19:18.103Z,23.50
2018-05-23T18:21:46.356Z,23.40
2018-05-23T18:24:13.800Z,23.40
2018-05-23T18:26:41.240Z,23.30
2018-05-23T18:29:08.772Z,23.30
2018-05-23T18:31:36.216Z,23.20
2018-05-23T18:34:03.717Z,23.20
2018-05-23T18:36:31.253Z,23.20
2018-05-23T18:38:58.687Z,23.00
2018-05-23T18:41:26.219Z,22.80
2018-05-23T18:43:53.646Z,22.70
2018-05-23T18:46:21.117Z,22.60
2018-05-23T18:48:48.558Z,22.50
2018-05-23T18:51:16.085Z,22.40
2018-05-23T18:53:43.644Z,22.40
2018-05-23T18:56:11.116Z,22.30
2018-05-23T18:58:38.621Z,22.20
2018-05-23T19:01:06.816Z,22.10
2018-05-23T19:03:34.292Z,22.10
2018-05-23T19:06:01.747Z,22.00
2018-05-23T19:08:29.167Z,21.90
2018-05-23T19:10:57.401Z,21.70
2018-05-23T19:13:24.850Z,21.60
2018-05-23T19:15:52.292Z,21.60
2018-05-23T19:18:19.848Z,21.60
2018-05-23T19:20:47.274Z,21.50
2018-05-23T19:23:15.488Z,21.20
2018-05-23T19:25:43.036Z,21.20
2018-05-23T19:28:10.543Z,21.10
2018-05-23T19:30:37.993Z,21.10
2018-05-23T19:33:05.481Z,21.00
2018-05-23T19:35:32.889Z,20.90
2018-05-23T19:38:00.421Z,20.80
2018-05-23T19:40:27.888Z,20.70
2018-05-23T19:42:55.316Z,20.60
2018-05-23T19:45:22.800Z,20.50
2018-05-23T19:47:50.346Z,20.40
2018-05-23T19:50:17.802Z,20.40
2018-05-23T19:52:45.286Z,20.40
2018-05-23T19:55:12.741Z,20.30
2018-05-23T19:57:40.197Z,20.20
2018-05-23T20:00:07.644Z,20.20
2018-05-23T20:02:35.082Z,20.20
2018-05-23T20:05:02.529Z,20.10
2018-05-23T20:07:29.966Z,20.00
2018-05-23T20:09:58.165Z,19.80
2018-05-23T20:12:25.650Z,19.70
2018-05-23T20:14:53.076Z,19.80
2018-05-23T20:17:20.516Z,19.70
2018-05-23T20:19:48.020Z,19.70
2018-05-23T20:22:15.554Z,19.60
2018-05-23T20:24:42.989Z,19.60
2018-05-23T20:27:11.675Z,19.50
2018-05-23T20:29:39.975Z,19.50
2018-05-23T20:32:07.409Z,19.40
2018-05-23T20:34:34.838Z,19.50
2018-05-23T20:37:03.048Z,19.30
2018-05-23T20:39:30.479Z,19.30
2018-05-23T20:41:58.695Z,19.20
2018-05-23T20:44:26.136Z,19.20
2018-05-23T20:46:53.604Z,19.20
2018-05-23T20:49:21.024Z,19.10
2018-05-23T20:51:49.247Z,19.10
2018-05-23T20:54:16.700Z,19.00
2018-05-23T20:56:44.174Z,19.00
2018-05-23T20:59:11.627Z,18.90
2018-05-23T21:01:39.157Z,18.80
2018-05-23T21:04:06.728Z,18.80
2018-05-23T21:06:34.188Z,18.70
2018-05-23T21:09:01.686Z,18.70
2018-05-23T21:11:29.225Z,18.70
2018-05-23T21:13:56.660Z,18.60
2018-05-23T21:16:24.117Z,18.60
2018-05-23T21:18:51.625Z,18.50
2018-05-23T21:21:19.879Z,18.50
2018-05-23T21:23:47.311Z,18.40
2018-05-23T21:26:14.785Z,18.50
2018-05-23T21:28:42.310Z,18.40
2018-05-23T21:31:09.735Z,18.40
2018-05-23T21:33:37.217Z,18.30
2018-05-23T21:36:04.739Z,18.30
2018-05-23T21:38:32.335Z,18.30
2018-05-23T21:40:59.835Z,18.20
2018-05-23T21:43:27.278Z,18.20
2018-05-23T21:45:54.735Z,18.10
2018-05-23T21:48:22.192Z,18.10
2018-05-23T21:50:49.719Z,18.10
2018-05-23T21:53:17.141Z,18.00
2018-05-23T21:55:45.333Z,17.90
2018-05-23T21:58:12.831Z,17.80
2018-05-23T22:00:40.583Z,17.80
2018-05-23T22:03:08.092Z,17.80
2018-05-23T22:05:36.284Z,17.70
2018-05-23T22:08:03.737Z,17.60
2018-05-23T22:10:31.252Z,17.70
2018-05-23T22:12:59.448Z,17.60
2018-05-23T22:15:27.661Z,17.60
2018-05-23T22:17:55.086Z,17.60
2018-05-23T22:20:23.365Z,17.60
2018-05-23T22:22:51.569Z,17.50
2018-05-23T22:25:19.094Z,17.40
2018-05-23T22:27:47.293Z,17.50
2018-05-23T22:30:14.740Z,17.50
2018-05-23T22:32:42.173Z,17.40
2018-05-23T22:35:10.368Z,17.40
2018-05-23T22:37:37.809Z,17.40
2018-05-23T22:40:06.018Z,17.40
2018-05-23T22:42:33.453Z,17.30
2018-05-23T22:45:00.928Z,17.40
2018-05-23T22:47:28.373Z,17.30
2018-05-23T22:49:55.852Z,17.30
2018-05-23T22:52:23.300Z,17.20
2018-05-23T22:54:50.731Z,17.20
2018-05-23T22:57:18.953Z,17.10
2018-05-23T22:59:46.392Z,17.10
2018-05-23T23:02:13.840Z,17.10
2018-05-23T23:04:41.264Z,17.00
2018-05-23T23:07:08.752Z,16.90
2018-05-23T23:09:36.209Z,16.90
2018-05-23T23:12:03.649Z,16.90
2018-05-23T23:14:31.148Z,16.80
2018-05-23T23:16:58.595Z,16.80
2018-05-23T23:19:26.037Z,16.80
2018-05-23T23:21:53.476Z,16.80
2018-05-23T23:24:20.970Z,16.70
2018-05-23T23:26:48.430Z,16.70
2018-05-23T23:29:15.864Z,16.60
2018-05-23T23:31:43.296Z,16.60
2018-05-23T23:34:10.806Z,16.60
2018-05-23T23:36:38.244Z,16.50
2018-05-23T23:39:05.681Z,16.40
2018-05-23T23:41:33.129Z,16.30
2018-05-23T23:44:00.617Z,16.30
2018-05-23T23:46:28.064Z,16.30
2018-05-23T23:48:55.505Z,16.30
2018-05-23T23:51:22.984Z,16.30
2018-05-23T23:53:50.424Z,16.20
2018-05-23T23:56:17.856Z,16.20
2018-05-23T23:58:45.356Z,16.10
